sensor_id;sensor_type;location;lat;lon;timestamp;P1;durP1;ratioP1;P2;durP2;ratioP2
20283;SDS011;10301;50.832;4.080;2022-10-31T00:01:14;19.02;;;9.35;;
20283;SDS011;10301;50.832;4.080;2022-10-31T00:03:40;16.05;;;9.43;;
20283;SDS011;10301;50.832;4.080;2022-10-31T00:06:05;17.15;;;8.48;;
20283;SDS011;10301;50.832;4.080;2022-10-31T00:08:31;14.50;;;8.43;;
20283;SDS011;10301;50.832;4.080;2022-10-31T00:10:57;17.25;;;9.32;;
20283;SDS011;10301;50.832;4.080;2022-10-31T00:13:22;17.80;;;9.10;;
20283;SDS011;10301;50.832;4.080;2022-10-31T00:15:48;17.20;;;8.98;;
20283;SDS011;10301;50.832;4.080;2022-10-31T00:18:14;17.88;;;9.27;;
20283;SDS011;10301;50.832;4.080;2022-10-31T00:20:41;16.20;;;8.93;;
20283;SDS011;10301;50.832;4.080;2022-10-31T00:23:07;15.40;;;8.63;;
20283;SDS011;10301;50.832;4.080;2022-10-31T00:25:34;19.60;;;9.68;;
20283;SDS011;10301;50.832;4.080;2022-10-31T00:28:03;17.42;;;9.65;;
20283;SDS011;10301;50.832;4.080;2022-10-31T00:30:29;18.80;;;9.50;;
20283;SDS011;10301;50.832;4.080;2022-10-31T00:32:55;15.73;;;10.02;;
20283;SDS011;10301;50.832;4.080;2022-10-31T00:35:20;17.88;;;9.45;;
20283;SDS011;10301;50.832;4.080;2022-10-31T00:37:49;19.50;;;10.07;;
20283;SDS011;10301;50.832;4.080;2022-10-31T00:40:15;19.92;;;9.77;;
20283;SDS011;10301;50.832;4.080;2022-10-31T00:42:41;16.52;;;9.93;;
20283;SDS011;10301;50.832;4.080;2022-10-31T00:45:07;16.65;;;9.85;;
20283;SDS011;10301;50.832;4.080;2022-10-31T00:47:34;18.50;;;9.75;;
20283;SDS011;10301;50.832;4.080;2022-10-31T00:49:59;17.30;;;9.68;;
20283;SDS011;10301;50.832;4.080;2022-10-31T00:52:25;15.65;;;8.43;;
20283;SDS011;10301;50.832;4.080;2022-10-31T00:54:51;18.50;;;9.35;;
20283;SDS011;10301;50.832;4.080;2022-10-31T00:57:16;16.50;;;8.63;;
20283;SDS011;10301;50.832;4.080;2022-10-31T00:59:42;17.08;;;9.07;;
20283;SDS011;10301;50.832;4.080;2022-10-31T01:02:07;13.63;;;8.00;;
20283;SDS011;10301;50.832;4.080;2022-10-31T01:04:33;16.17;;;8.13;;
20283;SDS011;10301;50.832;4.080;2022-10-31T01:06:59;16.15;;;8.40;;
20283;SDS011;10301;50.832;4.080;2022-10-31T01:09:24;17.67;;;9.10;;
20283;SDS011;10301;50.832;4.080;2022-10-31T01:11:50;16.65;;;8.85;;
20283;SDS011;10301;50.832;4.080;2022-10-31T01:14:15;17.83;;;8.85;;
20283;SDS011;10301;50.832;4.080;2022-10-31T01:16:41;17.55;;;8.60;;
20283;SDS011;10301;50.832;4.080;2022-10-31T01:19:07;18.77;;;8.70;;
20283;SDS011;10301;50.832;4.080;2022-10-31T01:21:32;18.45;;;8.75;;
20283;SDS011;10301;50.832;4.080;2022-10-31T01:23:58;22.80;;;9.60;;
20283;SDS011;10301;50.832;4.080;2022-10-31T01:26:25;19.52;;;9.48;;
20283;SDS011;10301;50.832;4.080;2022-10-31T01:28:59;17.00;;;9.00;;
20283;SDS011;10301;50.832;4.080;2022-10-31T01:31:31;17.10;;;9.88;;
20283;SDS011;10301;50.832;4.080;2022-10-31T01:33:59;19.08;;;9.95;;
20283;SDS011;10301;50.832;4.080;2022-10-31T01:36:33;22.63;;;8.95;;
20283;SDS011;10301;50.832;4.080;2022-10-31T01:39:01;17.77;;;9.40;;
20283;SDS011;10301;50.832;4.080;2022-10-31T01:41:32;16.92;;;9.25;;
20283;SDS011;10301;50.832;4.080;2022-10-31T01:44:01;16.17;;;9.75;;
20283;SDS011;10301;50.832;4.080;2022-10-31T01:46:52;19.40;;;10.43;;
20283;SDS011;10301;50.832;4.080;2022-10-31T01:52:46;17.65;;;9.43;;
20283;SDS011;10301;50.832;4.080;2022-10-31T01:55:32;19.48;;;9.50;;
20283;SDS011;10301;50.832;4.080;2022-10-31T01:58:42;17.77;;;9.57;;
20283;SDS011;10301;50.832;4.080;2022-10-31T02:00:51;18.60;;;9.00;;
20283;SDS011;10301;50.832;4.080;2022-10-31T02:03:20;16.50;;;9.13;;
20283;SDS011;10301;50.832;4.080;2022-10-31T02:05:47;20.30;;;9.10;;
20283;SDS011;10301;50.832;4.080;2022-10-31T02:08:31;18.40;;;9.40;;
20283;SDS011;10301;50.832;4.080;2022-10-31T02:10:59;17.30;;;8.77;;
20283;SDS011;10301;50.832;4.080;2022-10-31T02:13:26;16.95;;;9.13;;
20283;SDS011;10301;50.832;4.080;2022-10-31T02:15:54;16.77;;;9.23;;
20283;SDS011;10301;50.832;4.080;2022-10-31T02:18:21;20.23;;;9.40;;
20283;SDS011;10301;50.832;4.080;2022-10-31T02:21:02;16.63;;;9.30;;
20283;SDS011;10301;50.832;4.080;2022-10-31T02:26:43;18.55;;;9.40;;
20283;SDS011;10301;50.832;4.080;2022-10-31T02:32:14;21.80;;;10.00;;
20283;SDS011;10301;50.832;4.080;2022-10-31T02:40:44;22.95;;;9.77;;
20283;SDS011;10301;50.832;4.080;2022-10-31T02:43:22;17.98;;;9.18;;
20283;SDS011;10301;50.832;4.080;2022-10-31T02:48:23;16.70;;;9.65;;
20283;SDS011;10301;50.832;4.080;2022-10-31T02:50:56;20.63;;;9.38;;
20283;SDS011;10301;50.832;4.080;2022-10-31T02:53:25;21.38;;;10.15;;
20283;SDS011;10301;50.832;4.080;2022-10-31T02:55:53;20.33;;;8.98;;
20283;SDS011;10301;50.832;4.080;2022-10-31T02:58:26;16.90;;;9.80;;
20283;SDS011;10301;50.832;4.080;2022-10-31T03:01:09;17.30;;;9.50;;
20283;SDS011;10301;50.832;4.080;2022-10-31T03:04:00;19.67;;;9.70;;
20283;SDS011;10301;50.832;4.080;2022-10-31T03:06:33;21.75;;;11.27;;
20283;SDS011;10301;50.832;4.080;2022-10-31T03:12:02;20.75;;;9.73;;
20283;SDS011;10301;50.832;4.080;2022-10-31T03:15:07;17.08;;;10.05;;
20283;SDS011;10301;50.832;4.080;2022-10-31T03:17:26;20.75;;;9.45;;
20283;SDS011;10301;50.832;4.080;2022-10-31T03:20:10;18.90;;;9.88;;
20283;SDS011;10301;50.832;4.080;2022-10-31T03:22:36;17.65;;;9.52;;
20283;SDS011;10301;50.832;4.080;2022-10-31T03:25:04;21.08;;;10.30;;
20283;SDS011;10301;50.832;4.080;2022-10-31T03:27:32;19.50;;;9.50;;
20283;SDS011;10301;50.832;4.080;2022-10-31T03:30:02;16.17;;;9.02;;
20283;SDS011;10301;50.832;4.080;2022-10-31T03:35:08;17.08;;;9.55;;
20283;SDS011;10301;50.832;4.080;2022-10-31T03:37:35;20.15;;;9.98;;
20283;SDS011;10301;50.832;4.080;2022-10-31T03:40:03;19.08;;;10.23;;
20283;SDS011;10301;50.832;4.080;2022-10-31T03:42:31;16.08;;;9.50;;
20283;SDS011;10301;50.832;4.080;2022-10-31T03:45:01;17.95;;;10.02;;
20283;SDS011;10301;50.832;4.080;2022-10-31T03:47:31;20.38;;;10.38;;
20283;SDS011;10301;50.832;4.080;2022-10-31T03:49:58;15.50;;;9.48;;
20283;SDS011;10301;50.832;4.080;2022-10-31T03:55:01;17.00;;;10.52;;
20283;SDS011;10301;50.832;4.080;2022-10-31T03:58:20;15.40;;;9.48;;
20283;SDS011;10301;50.832;4.080;2022-10-31T04:00:33;16.98;;;8.93;;
20283;SDS011;10301;50.832;4.080;2022-10-31T04:03:09;17.88;;;9.15;;
20283;SDS011;10301;50.832;4.080;2022-10-31T04:05:39;23.27;;;10.27;;
20283;SDS011;10301;50.832;4.080;2022-10-31T04:08:08;19.20;;;9.82;;
20283;SDS011;10301;50.832;4.080;2022-10-31T04:10:38;19.95;;;10.50;;
20283;SDS011;10301;50.832;4.080;2022-10-31T04:13:10;15.85;;;9.88;;
20283;SDS011;10301;50.832;4.080;2022-10-31T04:15:39;20.13;;;10.10;;
20283;SDS011;10301;50.832;4.080;2022-10-31T04:18:07;24.63;;;10.02;;
20283;SDS011;10301;50.832;4.080;2022-10-31T04:20:34;19.52;;;10.30;;
20283;SDS011;10301;50.832;4.080;2022-10-31T04:23:02;14.20;;;8.95;;
20283;SDS011;10301;50.832;4.080;2022-10-31T04:25:29;17.27;;;9.77;;
20283;SDS011;10301;50.832;4.080;2022-10-31T04:27:54;24.80;;;10.20;;
20283;SDS011;10301;50.832;4.080;2022-10-31T04:30:20;16.48;;;9.48;;
20283;SDS011;10301;50.832;4.080;2022-10-31T04:32:46;19.33;;;10.25;;
20283;SDS011;10301;50.832;4.080;2022-10-31T04:35:12;19.15;;;10.02;;
20283;SDS011;10301;50.832;4.080;2022-10-31T04:37:37;16.90;;;9.52;;
20283;SDS011;10301;50.832;4.080;2022-10-31T04:40:03;17.20;;;10.25;;
20283;SDS011;10301;50.832;4.080;2022-10-31T04:42:30;21.90;;;10.10;;
20283;SDS011;10301;50.832;4.080;2022-10-31T04:44:56;17.98;;;9.85;;
20283;SDS011;10301;50.832;4.080;2022-10-31T04:47:21;20.77;;;10.85;;
20283;SDS011;10301;50.832;4.080;2022-10-31T04:49:47;20.08;;;11.40;;
20283;SDS011;10301;50.832;4.080;2022-10-31T04:52:13;21.55;;;12.13;;
20283;SDS011;10301;50.832;4.080;2022-10-31T04:54:38;17.50;;;10.88;;
20283;SDS011;10301;50.832;4.080;2022-10-31T04:57:04;26.63;;;12.70;;
20283;SDS011;10301;50.832;4.080;2022-10-31T04:59:29;17.85;;;10.95;;
20283;SDS011;10301;50.832;4.080;2022-10-31T05:01:55;21.88;;;10.38;;
20283;SDS011;10301;50.832;4.080;2022-10-31T05:04:21;19.67;;;11.18;;
20283;SDS011;10301;50.832;4.080;2022-10-31T05:06:46;23.98;;;12.25;;
20283;SDS011;10301;50.832;4.080;2022-10-31T05:09:12;19.60;;;11.98;;
20283;SDS011;10301;50.832;4.080;2022-10-31T05:11:41;18.92;;;11.80;;
20283;SDS011;10301;50.832;4.080;2022-10-31T05:14:06;20.48;;;12.55;;
20283;SDS011;10301;50.832;4.080;2022-10-31T05:16:32;23.30;;;13.63;;
20283;SDS011;10301;50.832;4.080;2022-10-31T05:18:58;24.85;;;14.13;;
20283;SDS011;10301;50.832;4.080;2022-10-31T05:21:23;25.35;;;14.40;;
20283;SDS011;10301;50.832;4.080;2022-10-31T05:23:49;23.60;;;13.88;;
20283;SDS011;10301;50.832;4.080;2022-10-31T05:26:14;23.45;;;13.55;;
20283;SDS011;10301;50.832;4.080;2022-10-31T05:28:40;21.23;;;13.30;;
20283;SDS011;10301;50.832;4.080;2022-10-31T05:31:06;23.70;;;13.63;;
20283;SDS011;10301;50.832;4.080;2022-10-31T05:33:31;28.45;;;13.60;;
20283;SDS011;10301;50.832;4.080;2022-10-31T05:35:57;24.00;;;14.13;;
20283;SDS011;10301;50.832;4.080;2022-10-31T05:38:22;19.70;;;12.43;;
20283;SDS011;10301;50.832;4.080;2022-10-31T05:40:48;21.30;;;12.52;;
20283;SDS011;10301;50.832;4.080;2022-10-31T05:43:14;23.67;;;13.45;;
20283;SDS011;10301;50.832;4.080;2022-10-31T05:45:39;20.67;;;13.32;;
20283;SDS011;10301;50.832;4.080;2022-10-31T05:48:05;19.35;;;12.60;;
20283;SDS011;10301;50.832;4.080;2022-10-31T05:50:31;21.95;;;13.95;;
20283;SDS011;10301;50.832;4.080;2022-10-31T05:52:58;23.33;;;13.32;;
20283;SDS011;10301;50.832;4.080;2022-10-31T05:55:25;23.35;;;13.00;;
20283;SDS011;10301;50.832;4.080;2022-10-31T05:57:52;22.25;;;13.40;;
20283;SDS011;10301;50.832;4.080;2022-10-31T06:00:19;19.35;;;12.43;;
20283;SDS011;10301;50.832;4.080;2022-10-31T06:02:45;20.52;;;13.10;;
20283;SDS011;10301;50.832;4.080;2022-10-31T06:05:11;21.33;;;13.85;;
20283;SDS011;10301;50.832;4.080;2022-10-31T06:07:37;22.35;;;13.20;;
20283;SDS011;10301;50.832;4.080;2022-10-31T06:10:04;20.45;;;13.25;;
20283;SDS011;10301;50.832;4.080;2022-10-31T06:12:31;24.92;;;13.88;;
20283;SDS011;10301;50.832;4.080;2022-10-31T06:15:02;21.70;;;13.00;;
20283;SDS011;10301;50.832;4.080;2022-10-31T06:17:32;19.20;;;12.15;;
20283;SDS011;10301;50.832;4.080;2022-10-31T06:20:01;19.80;;;12.13;;
20283;SDS011;10301;50.832;4.080;2022-10-31T06:22:28;23.70;;;13.23;;
20283;SDS011;10301;50.832;4.080;2022-10-31T06:24:53;21.90;;;12.88;;
20283;SDS011;10301;50.832;4.080;2022-10-31T06:27:19;22.17;;;13.60;;
20283;SDS011;10301;50.832;4.080;2022-10-31T06:29:45;23.08;;;13.13;;
20283;SDS011;10301;50.832;4.080;2022-10-31T06:32:11;23.55;;;13.15;;
20283;SDS011;10301;50.832;4.080;2022-10-31T06:34:38;20.48;;;12.73;;
20283;SDS011;10301;50.832;4.080;2022-10-31T06:37:05;24.10;;;12.65;;
20283;SDS011;10301;50.832;4.080;2022-10-31T06:39:31;24.58;;;13.38;;
20283;SDS011;10301;50.832;4.080;2022-10-31T06:41:57;24.17;;;13.10;;
20283;SDS011;10301;50.832;4.080;2022-10-31T06:44:23;23.10;;;12.82;;
20283;SDS011;10301;50.832;4.080;2022-10-31T06:46:48;21.48;;;12.45;;
20283;SDS011;10301;50.832;4.080;2022-10-31T06:49:14;19.23;;;12.50;;
20283;SDS011;10301;50.832;4.080;2022-10-31T06:51:40;24.17;;;13.32;;
20283;SDS011;10301;50.832;4.080;2022-10-31T06:54:05;22.77;;;13.50;;
20283;SDS011;10301;50.832;4.080;2022-10-31T06:56:31;21.27;;;12.80;;
20283;SDS011;10301;50.832;4.080;2022-10-31T06:58:56;23.30;;;13.02;;
20283;SDS011;10301;50.832;4.080;2022-10-31T07:01:22;24.58;;;13.35;;
20283;SDS011;10301;50.832;4.080;2022-10-31T07:03:48;21.85;;;13.73;;
20283;SDS011;10301;50.832;4.080;2022-10-31T07:06:13;24.42;;;13.55;;
20283;SDS011;10301;50.832;4.080;2022-10-31T07:08:39;29.45;;;14.90;;
20283;SDS011;10301;50.832;4.080;2022-10-31T07:11:04;21.63;;;13.52;;
20283;SDS011;10301;50.832;4.080;2022-10-31T07:13:30;26.70;;;14.70;;
20283;SDS011;10301;50.832;4.080;2022-10-31T07:15:59;27.67;;;15.27;;
20283;SDS011;10301;50.832;4.080;2022-10-31T07:18:26;31.55;;;15.57;;
20283;SDS011;10301;50.832;4.080;2022-10-31T07:20:52;27.30;;;14.52;;
20283;SDS011;10301;50.832;4.080;2022-10-31T07:23:18;29.55;;;15.85;;
20283;SDS011;10301;50.832;4.080;2022-10-31T07:25:44;23.33;;;14.63;;
20283;SDS011;10301;50.832;4.080;2022-10-31T07:28:10;30.85;;;15.85;;
20283;SDS011;10301;50.832;4.080;2022-10-31T07:30:36;25.88;;;14.77;;
20283;SDS011;10301;50.832;4.080;2022-10-31T07:33:03;25.38;;;14.30;;
20283;SDS011;10301;50.832;4.080;2022-10-31T07:35:29;25.95;;;15.40;;
20283;SDS011;10301;50.832;4.080;2022-10-31T07:37:55;23.17;;;14.52;;
20283;SDS011;10301;50.832;4.080;2022-10-31T07:40:22;26.77;;;14.13;;
20283;SDS011;10301;50.832;4.080;2022-10-31T07:42:49;27.08;;;14.45;;
20283;SDS011;10301;50.832;4.080;2022-10-31T07:45:17;26.98;;;15.05;;
20283;SDS011;10301;50.832;4.080;2022-10-31T07:47:48;25.27;;;15.18;;
20283;SDS011;10301;50.832;4.080;2022-10-31T07:50:18;27.60;;;14.98;;
20283;SDS011;10301;50.832;4.080;2022-10-31T07:52:45;27.38;;;15.05;;
20283;SDS011;10301;50.832;4.080;2022-10-31T07:55:12;26.05;;;14.95;;
20283;SDS011;10301;50.832;4.080;2022-10-31T07:57:37;32.22;;;15.65;;
20283;SDS011;10301;50.832;4.080;2022-10-31T08:00:07;26.92;;;14.68;;
20283;SDS011;10301;50.832;4.080;2022-10-31T08:02:34;26.02;;;14.10;;
20283;SDS011;10301;50.832;4.080;2022-10-31T08:05:00;23.77;;;14.43;;
20283;SDS011;10301;50.832;4.080;2022-10-31T08:07:27;30.00;;;14.88;;
20283;SDS011;10301;50.832;4.080;2022-10-31T08:09:53;25.85;;;15.02;;
20283;SDS011;10301;50.832;4.080;2022-10-31T08:12:19;27.52;;;15.27;;
20283;SDS011;10301;50.832;4.080;2022-10-31T08:14:45;27.98;;;15.07;;
20283;SDS011;10301;50.832;4.080;2022-10-31T08:17:11;26.48;;;14.98;;
20283;SDS011;10301;50.832;4.080;2022-10-31T08:19:36;24.38;;;14.73;;
20283;SDS011;10301;50.832;4.080;2022-10-31T08:22:02;25.35;;;15.27;;
20283;SDS011;10301;50.832;4.080;2022-10-31T08:24:28;25.65;;;14.38;;
20283;SDS011;10301;50.832;4.080;2022-10-31T08:26:53;20.70;;;14.30;;
20283;SDS011;10301;50.832;4.080;2022-10-31T08:29:19;26.00;;;14.68;;
20283;SDS011;10301;50.832;4.080;2022-10-31T08:31:44;28.50;;;14.07;;
20283;SDS011;10301;50.832;4.080;2022-10-31T08:34:10;23.63;;;14.38;;
20283;SDS011;10301;50.832;4.080;2022-10-31T08:36:36;25.45;;;14.57;;
20283;SDS011;10301;50.832;4.080;2022-10-31T08:39:01;21.08;;;13.48;;
20283;SDS011;10301;50.832;4.080;2022-10-31T08:41:27;26.33;;;15.43;;
20283;SDS011;10301;50.832;4.080;2022-10-31T08:43:53;25.42;;;14.85;;
20283;SDS011;10301;50.832;4.080;2022-10-31T08:46:19;28.85;;;17.25;;
20283;SDS011;10301;50.832;4.080;2022-10-31T08:48:47;23.42;;;14.82;;
20283;SDS011;10301;50.832;4.080;2022-10-31T08:51:13;26.75;;;15.32;;
20283;SDS011;10301;50.832;4.080;2022-10-31T08:53:38;24.52;;;14.82;;
20283;SDS011;10301;50.832;4.080;2022-10-31T08:56:04;29.08;;;14.98;;
20283;SDS011;10301;50.832;4.080;2022-10-31T08:58:30;27.30;;;14.30;;
20283;SDS011;10301;50.832;4.080;2022-10-31T09:00:58;26.27;;;14.98;;
20283;SDS011;10301;50.832;4.080;2022-10-31T09:03:26;26.17;;;16.25;;
20283;SDS011;10301;50.832;4.080;2022-10-31T09:05:57;27.38;;;15.43;;
20283;SDS011;10301;50.832;4.080;2022-10-31T09:08:24;28.33;;;16.08;;
20283;SDS011;10301;50.832;4.080;2022-10-31T09:10:51;23.65;;;15.48;;
20283;SDS011;10301;50.832;4.080;2022-10-31T09:13:20;24.92;;;14.93;;
20283;SDS011;10301;50.832;4.080;2022-10-31T09:15:47;25.00;;;15.05;;
20283;SDS011;10301;50.832;4.080;2022-10-31T09:18:14;25.20;;;14.00;;
20283;SDS011;10301;50.832;4.080;2022-10-31T09:20:43;29.65;;;15.75;;
20283;SDS011;10301;50.832;4.080;2022-10-31T09:23:10;21.77;;;15.15;;
20283;SDS011;10301;50.832;4.080;2022-10-31T09:25:40;26.63;;;14.90;;
20283;SDS011;10301;50.832;4.080;2022-10-31T09:28:07;25.83;;;14.82;;
20283;SDS011;10301;50.832;4.080;2022-10-31T09:30:35;26.42;;;14.57;;
20283;SDS011;10301;50.832;4.080;2022-10-31T09:33:05;28.25;;;14.82;;
20283;SDS011;10301;50.832;4.080;2022-10-31T09:35:32;23.13;;;14.93;;
20283;SDS011;10301;50.832;4.080;2022-10-31T09:38:02;25.38;;;14.43;;
20283;SDS011;10301;50.832;4.080;2022-10-31T09:40:36;23.48;;;14.30;;
20283;SDS011;10301;50.832;4.080;2022-10-31T09:46:26;21.88;;;14.25;;
20283;SDS011;10301;50.832;4.080;2022-10-31T09:52:31;24.05;;;13.52;;
20283;SDS011;10301;50.832;4.080;2022-10-31T09:54:58;22.83;;;12.55;;
20283;SDS011;10301;50.832;4.080;2022-10-31T09:57:35;20.10;;;13.27;;
20283;SDS011;10301;50.832;4.080;2022-10-31T10:00:04;24.63;;;14.23;;
20283;SDS011;10301;50.832;4.080;2022-10-31T10:02:42;25.45;;;14.32;;
20283;SDS011;10301;50.832;4.080;2022-10-31T10:05:13;23.02;;;14.65;;
20283;SDS011;10301;50.832;4.080;2022-10-31T10:10:29;20.20;;;13.75;;
20283;SDS011;10301;50.832;4.080;2022-10-31T10:26:28;19.85;;;12.70;;
20283;SDS011;10301;50.832;4.080;2022-10-31T10:29:08;19.20;;;12.82;;
20283;SDS011;10301;50.832;4.080;2022-10-31T10:31:44;22.48;;;12.30;;
20283;SDS011;10301;50.832;4.080;2022-10-31T10:34:18;20.60;;;12.35;;
20283;SDS011;10301;50.832;4.080;2022-10-31T10:36:58;20.33;;;12.10;;
20283;SDS011;10301;50.832;4.080;2022-10-31T10:39:41;18.40;;;11.13;;
20283;SDS011;10301;50.832;4.080;2022-10-31T10:42:11;18.58;;;12.05;;
20283;SDS011;10301;50.832;4.080;2022-10-31T10:44:57;20.33;;;11.13;;
20283;SDS011;10301;50.832;4.080;2022-10-31T10:47:51;16.73;;;11.43;;
20283;SDS011;10301;50.832;4.080;2022-10-31T10:50:25;17.77;;;10.70;;
20283;SDS011;10301;50.832;4.080;2022-10-31T10:53:15;16.50;;;10.55;;
20283;SDS011;10301;50.832;4.080;2022-10-31T10:58:37;18.70;;;10.57;;
20283;SDS011;10301;50.832;4.080;2022-10-31T11:01:09;16.58;;;10.68;;
20283;SDS011;10301;50.832;4.080;2022-10-31T11:03:37;18.63;;;10.13;;
20283;SDS011;10301;50.832;4.080;2022-10-31T11:06:02;18.35;;;10.07;;
20283;SDS011;10301;50.832;4.080;2022-10-31T11:08:32;17.83;;;9.57;;
20283;SDS011;10301;50.832;4.080;2022-10-31T11:13:57;17.63;;;9.15;;
20283;SDS011;10301;50.832;4.080;2022-10-31T11:16:31;15.20;;;9.38;;
20283;SDS011;10301;50.832;4.080;2022-10-31T11:19:09;16.75;;;8.95;;
20283;SDS011;10301;50.832;4.080;2022-10-31T11:21:44;18.90;;;9.27;;
20283;SDS011;10301;50.832;4.080;2022-10-31T11:26:36;16.88;;;9.27;;
20283;SDS011;10301;50.832;4.080;2022-10-31T11:29:03;16.38;;;9.50;;
20283;SDS011;10301;50.832;4.080;2022-10-31T11:31:30;20.10;;;9.82;;
20283;SDS011;10301;50.832;4.080;2022-10-31T11:34:00;17.15;;;9.02;;
20283;SDS011;10301;50.832;4.080;2022-10-31T11:36:32;18.95;;;10.02;;
20283;SDS011;10301;50.832;4.080;2022-10-31T11:39:03;19.27;;;9.10;;
20283;SDS011;10301;50.832;4.080;2022-10-31T11:41:37;17.58;;;8.75;;
20283;SDS011;10301;50.832;4.080;2022-10-31T11:46:37;17.83;;;8.43;;
20283;SDS011;10301;50.832;4.080;2022-10-31T11:49:31;14.77;;;7.97;;
20283;SDS011;10301;50.832;4.080;2022-10-31T11:51:58;18.95;;;9.02;;
20283;SDS011;10301;50.832;4.080;2022-10-31T11:54:29;20.25;;;9.02;;
20283;SDS011;10301;50.832;4.080;2022-10-31T11:56:59;17.75;;;9.05;;
20283;SDS011;10301;50.832;4.080;2022-10-31T11:59:31;16.00;;;7.88;;
20283;SDS011;10301;50.832;4.080;2022-10-31T12:01:58;14.82;;;8.35;;
20283;SDS011;10301;50.832;4.080;2022-10-31T12:04:30;21.00;;;8.88;;
20283;SDS011;10301;50.832;4.080;2022-10-31T12:07:03;17.50;;;8.57;;
20283;SDS011;10301;50.832;4.080;2022-10-31T12:09:30;16.95;;;8.98;;
20283;SDS011;10301;50.832;4.080;2022-10-31T12:17:26;16.48;;;8.73;;
20283;SDS011;10301;50.832;4.080;2022-10-31T12:25:11;19.00;;;9.18;;
20283;SDS011;10301;50.832;4.080;2022-10-31T12:27:58;15.95;;;8.75;;
20283;SDS011;10301;50.832;4.080;2022-10-31T12:36:20;14.63;;;8.52;;
20283;SDS011;10301;50.832;4.080;2022-10-31T12:42:02;17.75;;;8.25;;
20283;SDS011;10301;50.832;4.080;2022-10-31T12:58:59;14.45;;;8.57;;
20283;SDS011;10301;50.832;4.080;2022-10-31T13:01:30;17.67;;;8.80;;
20283;SDS011;10301;50.832;4.080;2022-10-31T13:06:36;18.45;;;7.95;;
20283;SDS011;10301;50.832;4.080;2022-10-31T13:09:08;15.48;;;8.35;;
20283;SDS011;10301;50.832;4.080;2022-10-31T13:11:42;15.68;;;8.15;;
20283;SDS011;10301;50.832;4.080;2022-10-31T13:14:13;16.33;;;8.02;;
20283;SDS011;10301;50.832;4.080;2022-10-31T13:16:50;14.43;;;7.75;;
20283;SDS011;10301;50.832;4.080;2022-10-31T13:19:18;20.52;;;7.93;;
20283;SDS011;10301;50.832;4.080;2022-10-31T13:24:33;19.58;;;7.55;;
20283;SDS011;10301;50.832;4.080;2022-10-31T13:27:11;13.10;;;6.95;;
20283;SDS011;10301;50.832;4.080;2022-10-31T13:30:34;15.52;;;6.70;;
20283;SDS011;10301;50.832;4.080;2022-10-31T13:32:46;12.55;;;6.57;;
20283;SDS011;10301;50.832;4.080;2022-10-31T13:38:16;15.35;;;7.00;;
20283;SDS011;10301;50.832;4.080;2022-10-31T13:41:00;12.82;;;6.25;;
20283;SDS011;10301;50.832;4.080;2022-10-31T13:43:50;16.95;;;7.10;;
20283;SDS011;10301;50.832;4.080;2022-10-31T13:48:58;18.25;;;7.28;;
20283;SDS011;10301;50.832;4.080;2022-10-31T13:51:26;13.43;;;6.63;;
20283;SDS011;10301;50.832;4.080;2022-10-31T13:53:58;11.75;;;6.25;;
20283;SDS011;10301;50.832;4.080;2022-10-31T14:01:25;14.82;;;6.97;;
20283;SDS011;10301;50.832;4.080;2022-10-31T14:03:58;15.38;;;6.32;;
20283;SDS011;10301;50.832;4.080;2022-10-31T14:06:36;16.63;;;6.35;;
20283;SDS011;10301;50.832;4.080;2022-10-31T14:09:31;14.50;;;6.13;;
20283;SDS011;10301;50.832;4.080;2022-10-31T14:12:02;15.10;;;5.68;;
20283;SDS011;10301;50.832;4.080;2022-10-31T14:14:32;12.50;;;5.88;;
20283;SDS011;10301;50.832;4.080;2022-10-31T14:17:04;14.65;;;6.28;;
20283;SDS011;10301;50.832;4.080;2022-10-31T14:19:31;13.52;;;5.80;;
20283;SDS011;10301;50.832;4.080;2022-10-31T14:21:56;11.82;;;5.80;;
20283;SDS011;10301;50.832;4.080;2022-10-31T14:26:55;11.95;;;5.75;;
20283;SDS011;10301;50.832;4.080;2022-10-31T14:29:27;14.90;;;6.05;;
20283;SDS011;10301;50.832;4.080;2022-10-31T14:31:55;14.13;;;5.72;;
20283;SDS011;10301;50.832;4.080;2022-10-31T14:51:22;12.52;;;4.63;;
20283;SDS011;10301;50.832;4.080;2022-10-31T14:53:52;13.18;;;4.97;;
20283;SDS011;10301;50.832;4.080;2022-10-31T14:56:21;13.38;;;5.00;;
20283;SDS011;10301;50.832;4.080;2022-10-31T14:59:08;15.10;;;4.90;;
20283;SDS011;10301;50.832;4.080;2022-10-31T15:01:38;11.23;;;5.50;;
20283;SDS011;10301;50.832;4.080;2022-10-31T15:04:22;12.27;;;5.00;;
20283;SDS011;10301;50.832;4.080;2022-10-31T15:06:51;11.13;;;4.68;;
20283;SDS011;10301;50.832;4.080;2022-10-31T15:09:27;12.85;;;4.63;;
20283;SDS011;10301;50.832;4.080;2022-10-31T15:12:16;12.50;;;4.63;;
20283;SDS011;10301;50.832;4.080;2022-10-31T15:14:48;12.63;;;4.80;;
20283;SDS011;10301;50.832;4.080;2022-10-31T15:17:14;15.60;;;5.10;;
20283;SDS011;10301;50.832;4.080;2022-10-31T15:19:40;11.80;;;4.95;;
20283;SDS011;10301;50.832;4.080;2022-10-31T15:22:10;11.82;;;4.88;;
20283;SDS011;10301;50.832;4.080;2022-10-31T15:24:49;14.25;;;5.10;;
20283;SDS011;10301;50.832;4.080;2022-10-31T15:27:21;9.23;;;4.97;;
20283;SDS011;10301;50.832;4.080;2022-10-31T15:29:52;16.05;;;5.30;;
20283;SDS011;10301;50.832;4.080;2022-10-31T15:32:21;11.13;;;5.05;;
20283;SDS011;10301;50.832;4.080;2022-10-31T15:34:56;12.55;;;5.30;;
20283;SDS011;10301;50.832;4.080;2022-10-31T15:37:22;13.27;;;5.43;;
20283;SDS011;10301;50.832;4.080;2022-10-31T15:39:50;13.45;;;6.10;;
20283;SDS011;10301;50.832;4.080;2022-10-31T15:47:36;12.82;;;5.68;;
20283;SDS011;10301;50.832;4.080;2022-10-31T15:50:03;13.93;;;5.72;;
20283;SDS011;10301;50.832;4.080;2022-10-31T15:52:41;12.65;;;5.38;;
20283;SDS011;10301;50.832;4.080;2022-10-31T15:57:34;16.05;;;6.28;;
20283;SDS011;10301;50.832;4.080;2022-10-31T16:00:06;16.63;;;5.72;;
20283;SDS011;10301;50.832;4.080;2022-10-31T16:03:09;17.25;;;5.43;;
20283;SDS011;10301;50.832;4.080;2022-10-31T16:05:48;14.35;;;5.72;;
20283;SDS011;10301;50.832;4.080;2022-10-31T16:08:25;11.27;;;5.55;;
20283;SDS011;10301;50.832;4.080;2022-10-31T16:13:32;14.02;;;5.90;;
20283;SDS011;10301;50.832;4.080;2022-10-31T16:16:00;16.35;;;6.05;;
20283;SDS011;10301;50.832;4.080;2022-10-31T16:18:28;12.85;;;6.28;;
20283;SDS011;10301;50.832;4.080;2022-10-31T16:20:55;17.48;;;6.78;;
20283;SDS011;10301;50.832;4.080;2022-10-31T16:23:23;16.50;;;6.60;;
20283;SDS011;10301;50.832;4.080;2022-10-31T16:25:51;19.75;;;10.70;;
20283;SDS011;10301;50.832;4.080;2022-10-31T16:28:18;16.85;;;7.35;;
20283;SDS011;10301;50.832;4.080;2022-10-31T16:30:49;15.10;;;6.95;;
20283;SDS011;10301;50.832;4.080;2022-10-31T16:33:35;15.05;;;6.10;;
20283;SDS011;10301;50.832;4.080;2022-10-31T16:38:52;18.80;;;6.25;;
20283;SDS011;10301;50.832;4.080;2022-10-31T16:41:18;15.18;;;7.78;;
20283;SDS011;10301;50.832;4.080;2022-10-31T16:43:44;14.50;;;7.25;;
20283;SDS011;10301;50.832;4.080;2022-10-31T16:46:12;17.48;;;6.78;;
20283;SDS011;10301;50.832;4.080;2022-10-31T16:48:40;16.80;;;6.85;;
20283;SDS011;10301;50.832;4.080;2022-10-31T16:51:07;12.38;;;6.22;;
20283;SDS011;10301;50.832;4.080;2022-10-31T16:53:32;11.60;;;6.47;;
20283;SDS011;10301;50.832;4.080;2022-10-31T16:55:58;14.68;;;6.55;;
20283;SDS011;10301;50.832;4.080;2022-10-31T16:58:32;13.77;;;6.47;;
20283;SDS011;10301;50.832;4.080;2022-10-31T17:01:00;16.20;;;6.88;;
20283;SDS011;10301;50.832;4.080;2022-10-31T17:03:28;19.67;;;9.70;;
20283;SDS011;10301;50.832;4.080;2022-10-31T17:05:55;18.00;;;8.80;;